Time;durP1;ratioP1;P1;durP2;ratioP2;P2;SDS_P1;SDS_P2;PMS_P1;PMS_P2;Temp;Humidity;BMP_temperature;BMP_pressure;BME280_temperature;BME280_humidity;BME280_pressure;Samples;Min_cycle;Max_cycle;Signal;HPM_P1;HPM_P2
2023/07/08 00:00:49;;;;;;;11.65;4.60;;;17.80;99.90;;;;;;5116569;27;20051;-76
2023/07/08 00:03:15;;;;;;;12.73;5.53;;;17.80;99.90;;;;;;5116605;27;20046;-73
2023/07/08 00:05:41;;;;;;;10.23;4.13;;;17.80;99.90;;;;;;5135615;27;20061;-74
2023/07/08 00:08:14;;;;;;;9.60;4.22;;;17.70;99.90;;;;;;5134671;27;20122;-74
2023/07/08 00:10:40;;;;;;;9.38;4.22;;;17.70;99.90;;;;;;5134154;27;20505;-74
2023/07/08 00:13:08;;;;;;;9.50;4.50;;;17.70;99.90;;;;;;5134584;27;20146;-74
2023/07/08 00:15:36;;;;;;;8.30;4.40;;;17.70;99.90;;;;;;5116503;28;20043;-71
2023/07/08 00:18:09;;;;;;;10.05;4.38;;;17.70;99.90;;;;;;5134549;27;20163;-72
2023/07/08 00:20:49;;;;;;;12.90;4.82;;;17.70;99.90;;;;;;5099561;27;20043;-73
2023/07/08 00:23:15;;;;;;;9.68;3.97;;;17.70;99.90;;;;;;5134560;28;20108;-74
2023/07/08 00:25:42;;;;;;;9.23;4.03;;;17.60;99.90;;;;;;5134546;28;20047;-71
2023/07/08 00:28:21;;;;;;;8.40;4.00;;;17.60;99.90;;;;;;5117299;28;20051;-72
2023/07/08 00:30:47;;;;;;;10.23;4.20;;;17.60;99.90;;;;;;5134428;28;20039;-74
2023/07/08 00:33:13;;;;;;;8.93;4.10;;;17.50;99.90;;;;;;5098969;28;20380;-71
2023/07/08 00:35:43;;;;;;;11.48;4.30;;;17.50;99.90;;;;;;5134462;28;20099;-72
2023/07/08 00:38:17;;;;;;;9.15;4.13;;;17.40;99.90;;;;;;5135205;28;20409;-72
2023/07/08 00:41:01;;;;;;;9.60;4.20;;;17.40;99.90;;;;;;5099576;28;20109;-72
2023/07/08 00:43:41;;;;;;;10.13;4.07;;;17.40;99.90;;;;;;5116993;28;20432;-74
2023/07/08 00:46:31;;;;;;;8.15;4.10;;;17.30;99.90;;;;;;5135013;28;20437;-73
2023/07/08 00:49:03;;;;;;;9.63;4.05;;;17.30;99.90;;;;;;5098902;28;20087;-74
2023/07/08 00:51:29;;;;;;;8.02;4.22;;;17.30;99.90;;;;;;5116600;28;20043;-74
2023/07/08 00:53:54;;;;;;;11.07;4.10;;;17.20;99.90;;;;;;5115796;28;20092;-73
2023/07/08 00:56:28;;;;;;;11.93;4.32;;;17.10;99.90;;;;;;5134051;28;20074;-74
2023/07/08 00:59:07;;;;;;;11.80;4.15;;;17.10;99.90;;;;;;5116502;28;20039;-74
2023/07/08 01:01:36;;;;;;;9.82;4.40;;;17.10;99.90;;;;;;5134011;27;20084;-73
2023/07/08 01:04:11;;;;;;;9.15;4.18;;;17.00;99.90;;;;;;5119721;27;20472;-72
2023/07/08 01:06:42;;;;;;;9.90;4.10;;;17.00;99.90;;;;;;5137993;27;20035;-73
2023/07/08 01:09:12;;;;;;;7.53;3.85;;;16.90;99.90;;;;;;5154510;27;20076;-75
2023/07/08 01:11:39;;;;;;;8.02;4.35;;;16.90;99.90;;;;;;5137926;27;20051;-74
2023/07/08 01:14:09;;;;;;;7.78;4.38;;;16.90;99.90;;;;;;5119659;27;20043;-73
2023/07/08 01:16:35;;;;;;;7.88;4.13;;;16.90;99.90;;;;;;5102605;27;20047;-73
2023/07/08 01:19:04;;;;;;;9.55;4.20;;;16.90;99.90;;;;;;5119378;27;20053;-75
2023/07/08 01:21:37;;;;;;;11.90;4.35;;;16.80;99.90;;;;;;5138358;27;20047;-74
2023/07/08 01:24:06;;;;;;;8.13;3.83;;;16.80;99.90;;;;;;5138173;27;20046;-74
2023/07/08 01:26:35;;;;;;;9.30;4.63;;;16.80;99.90;;;;;;5120210;27;20036;-76
2023/07/08 01:29:02;;;;;;;10.50;4.65;;;16.70;99.90;;;;;;5119267;27;20043;-74
2023/07/08 01:31:28;;;;;;;;;;;16.70;99.90;;;;;;5137952;27;20050;-73
2023/07/08 01:33:55;;;;;;;10.80;4.60;;;16.60;99.90;;;;;;5118942;27;19919;-72
2023/07/08 01:36:21;;;;;;;9.02;4.00;;;16.60;99.90;;;;;;5137460;27;20058;-72
2023/07/08 01:38:47;;;;;;;10.02;4.20;;;16.60;99.90;;;;;;5137356;27;20096;-73
2023/07/08 01:41:14;;;;;;;12.40;4.37;;;16.50;99.90;;;;;;5119604;27;20035;-72
2023/07/08 01:43:40;;;;;;;8.13;4.30;;;16.50;99.90;;;;;;5119484;27;20434;-72
2023/07/08 01:46:23;;;;;;;9.35;4.20;;;16.60;99.90;;;;;;5119124;27;20065;-72
2023/07/08 01:48:54;;;;;;;7.97;3.78;;;16.50;99.90;;;;;;5120003;27;20348;-73
2023/07/08 01:51:21;;;;;;;9.75;4.50;;;16.50;99.90;;;;;;5137226;27;20047;-74
2023/07/08 01:53:47;;;;;;;8.57;4.32;;;16.50;99.90;;;;;;5136895;27;20054;-72
2023/07/08 01:56:14;;;;;;;9.30;4.88;;;16.50;99.90;;;;;;5118572;27;20043;-72
2023/07/08 01:58:40;;;;;;;11.00;4.60;;;16.50;99.90;;;;;;5101941;27;20082;-72
2023/07/08 02:01:06;;;;;;;10.45;4.88;;;16.40;99.90;;;;;;5137381;27;20527;-72
2023/07/08 02:03:32;;;;;;;11.60;4.72;;;16.40;99.90;;;;;;5136759;27;20078;-73
2023/07/08 02:05:58;;;;;;;9.23;4.45;;;16.40;99.90;;;;;;5102520;27;20122;-72
2023/07/08 02:08:24;;;;;;;7.30;4.60;;;16.30;99.90;;;;;;5136685;27;20039;-71
2023/07/08 02:10:52;;;;;;;8.83;4.33;;;16.30;99.90;;;;;;5136823;27;20035;-73
2023/07/08 02:13:19;;;;;;;7.93;4.32;;;16.30;99.90;;;;;;5118355;27;20051;-74
2023/07/08 02:15:45;;;;;;;8.77;4.93;;;16.20;99.90;;;;;;5136677;27;20114;-74
2023/07/08 02:18:10;;;;;;;9.70;5.20;;;16.10;99.90;;;;;;5118266;27;20550;-72
2023/07/08 02:20:36;;;;;;;9.63;4.67;;;16.10;99.90;;;;;;5152717;27;20047;-73
2023/07/08 02:23:02;;;;;;;14.05;4.82;;;16.10;99.90;;;;;;5118576;27;20118;-73
2023/07/08 02:25:28;;;;;;;9.30;5.03;;;16.10;99.90;;;;;;5118535;27;20046;-75
2023/07/08 02:27:57;;;;;;;11.68;5.30;;;16.00;99.90;;;;;;5118950;27;20368;-74
2023/07/08 02:30:23;;;;;;;10.32;4.95;;;16.00;99.90;;;;;;5137458;27;20040;-74
2023/07/08 02:32:56;;;;;;;9.25;5.03;;;15.90;99.90;;;;;;5130880;27;20050;-74
2023/07/08 02:35:30;;;;;;;9.43;4.47;;;15.90;99.90;;;;;;5138938;27;20356;-73
2023/07/08 02:37:57;;;;;;;12.18;4.82;;;15.90;99.90;;;;;;5137442;27;20043;-71
2023/07/08 02:40:23;;;;;;;;;;;15.80;99.90;;;;;;5137598;27;20039;-72
2023/07/08 02:42:49;;;;;;;13.07;5.50;;;15.90;99.90;;;;;;5137222;27;19919;-73
2023/07/08 02:45:16;;;;;;;10.32;4.80;;;15.80;99.90;;;;;;5118242;27;20039;-74
2023/07/08 02:47:42;;;;;;;11.40;5.35;;;15.80;99.90;;;;;;5135550;27;20115;-74
2023/07/08 02:50:09;;;;;;;11.03;4.83;;;15.80;99.90;;;;;;5118103;27;20402;-73
2023/07/08 02:52:35;;;;;;;9.77;4.70;;;15.70;99.90;;;;;;5101253;27;20086;-73
2023/07/08 02:55:01;;;;;;;9.95;4.78;;;15.70;99.90;;;;;;5136884;27;20090;-73
2023/07/08 02:57:27;;;;;;;16.77;5.07;;;15.70;99.90;;;;;;5136519;27;20049;-72
2023/07/08 02:59:53;;;;;;;9.63;4.53;;;15.70;99.90;;;;;;5084618;27;20281;-74
2023/07/08 03:02:19;;;;;;;10.15;4.53;;;15.70;99.90;;;;;;5137773;27;20074;-74
2023/07/08 03:04:44;;;;;;;11.63;4.88;;;15.70;99.90;;;;;;5143966;27;20043;-73
2023/07/08 03:07:11;;;;;;;9.45;4.95;;;15.70;99.90;;;;;;5140978;27;20035;-71
2023/07/08 03:09:41;;;;;;;9.90;5.15;;;15.60;99.90;;;;;;5158812;27;20039;-77
2023/07/08 03:12:08;;;;;;;9.55;4.68;;;15.70;99.90;;;;;;5140757;27;20090;-73
2023/07/08 03:14:34;;;;;;;9.27;4.72;;;15.60;99.90;;;;;;5171370;27;20047;-72
2023/07/08 03:17:00;;;;;;;9.38;4.88;;;15.60;99.90;;;;;;5137665;27;20035;-73
2023/07/08 03:19:25;;;;;;;10.53;4.80;;;15.60;99.90;;;;;;5135826;27;20039;-73
2023/07/08 03:21:52;;;;;;;10.10;4.40;;;15.60;99.90;;;;;;5135332;27;20046;-74
2023/07/08 03:24:20;;;;;;;7.73;4.90;;;15.70;99.90;;;;;;5100554;27;20062;-72
2023/07/08 03:26:46;;;;;;;9.90;4.70;;;15.70;99.90;;;;;;5100582;27;20066;-72
2023/07/08 03:29:15;;;;;;;12.35;4.35;;;15.80;99.90;;;;;;5135537;27;20039;-71
2023/07/08 03:31:41;;;;;;;8.73;4.40;;;15.80;99.90;;;;;;5135393;27;20481;-74
2023/07/08 03:34:10;;;;;;;8.30;4.57;;;15.80;99.90;;;;;;5135670;27;20138;-72
2023/07/08 03:36:50;;;;;;;10.45;4.72;;;15.80;99.90;;;;;;5135029;27;20479;-73
2023/07/08 03:39:18;;;;;;;10.48;4.68;;;15.80;99.90;;;;;;5136327;27;20043;-75
2023/07/08 03:41:44;;;;;;;9.77;4.60;;;15.90;99.90;;;;;;5135512;27;20138;-72
2023/07/08 03:44:10;;;;;;;8.77;4.50;;;15.90;99.90;;;;;;5137534;27;20043;-76
2023/07/08 03:46:36;;;;;;;8.23;4.63;;;15.90;99.90;;;;;;5085751;27;20047;-74
2023/07/08 03:49:02;;;;;;;8.68;5.18;;;15.90;99.90;;;;;;5119944;27;20471;-72
2023/07/08 03:51:30;;;;;;;8.20;4.53;;;16.00;99.90;;;;;;5136149;27;20497;-74
2023/07/08 03:53:56;;;;;;;9.52;4.85;;;16.00;99.90;;;;;;5136459;27;20047;-70
2023/07/08 03:56:22;;;;;;;9.15;5.20;;;16.00;99.90;;;;;;5101479;27;20072;-72
2023/07/08 03:58:47;;;;;;;8.93;5.40;;;16.10;99.90;;;;;;5137100;27;20050;-73
2023/07/08 04:01:20;;;;;;;8.73;4.80;;;16.10;99.90;;;;;;5136675;27;20487;-72
2023/07/08 04:03:46;;;;;;;9.38;5.10;;;16.10;99.90;;;;;;5117221;27;20039;-73
2023/07/08 04:06:13;;;;;;;7.30;4.88;;;16.00;99.90;;;;;;5117185;28;20047;-74
2023/07/08 04:08:38;;;;;;;8.43;5.30;;;16.00;99.90;;;;;;5116476;27;20065;-72
2023/07/08 04:11:04;;;;;;;11.50;5.10;;;16.00;99.90;;;;;;5133226;27;20463;-73
2023/07/08 04:13:30;;;;;;;9.35;5.70;;;16.10;99.90;;;;;;5116437;27;20054;-72
2023/07/08 04:16:02;;;;;;;9.32;5.05;;;16.10;99.90;;;;;;5100311;27;20047;-73
2023/07/08 04:18:28;;;;;;;11.85;5.80;;;16.20;99.90;;;;;;5134599;27;20051;-72
2023/07/08 04:20:53;;;;;;;10.27;5.30;;;16.20;99.90;;;;;;5117170;28;20149;-73
2023/07/08 04:23:20;;;;;;;9.82;5.40;;;16.20;99.90;;;;;;5116339;28;20134;-74
2023/07/08 04:25:52;;;;;;;10.73;5.55;;;16.20;99.90;;;;;;5117041;28;20075;-72
2023/07/08 04:28:18;;;;;;;10.40;4.90;;;16.30;99.90;;;;;;5134520;28;20051;-72
2023/07/08 04:30:43;;;;;;;9.95;4.78;;;16.30;99.90;;;;;;5116972;28;20046;-72
2023/07/08 04:33:13;;;;;;;8.00;4.78;;;16.40;99.90;;;;;;5134451;28;20082;-72
2023/07/08 04:35:40;;;;;;;9.68;4.57;;;16.40;99.90;;;;;;5116331;27;20047;-74
2023/07/08 04:38:11;;;;;;;7.13;4.47;;;16.50;99.90;;;;;;5137151;27;20082;-74
2023/07/08 04:40:39;;;;;;;9.18;4.50;;;16.60;99.90;;;;;;5121295;27;20122;-72
2023/07/08 04:43:12;;;;;;;10.20;4.50;;;16.60;99.90;;;;;;5120252;27;20078;-70
2023/07/08 04:45:39;;;;;;;10.25;5.22;;;16.70;99.90;;;;;;5120049;27;20062;-73
2023/07/08 04:48:08;;;;;;;7.97;4.47;;;16.70;99.90;;;;;;5138681;27;20036;-72
2023/07/08 04:50:35;;;;;;;8.98;4.38;;;16.80;99.90;;;;;;5120087;27;20040;-74
2023/07/08 04:53:02;;;;;;;7.88;4.47;;;16.80;99.90;;;;;;5103398;27;20551;-74
2023/07/08 04:55:27;;;;;;;;;;;16.90;99.90;;;;;;5120776;27;20055;-74
2023/07/08 04:57:53;;;;;;;9.93;4.70;;;16.90;99.90;;;;;;5138388;27;19926;-74
2023/07/08 05:00:19;;;;;;;11.07;4.70;;;17.00;99.90;;;;;;5120312;27;20039;-73
2023/07/08 05:02:45;;;;;;;10.80;4.50;;;17.00;99.90;;;;;;5119959;27;20179;-73
2023/07/08 05:05:11;;;;;;;7.72;4.22;;;17.00;99.90;;;;;;5138766;27;20043;-73
2023/07/08 05:07:37;;;;;;;7.03;4.13;;;17.10;99.90;;;;;;5138100;27;20046;-73
2023/07/08 05:10:02;;;;;;;10.77;4.90;;;17.10;99.90;;;;;;5120116;27;20087;-73
2023/07/08 05:12:28;;;;;;;7.80;4.10;;;17.10;99.90;;;;;;5120175;27;20122;-73
2023/07/08 05:14:54;;;;;;;7.72;4.50;;;17.20;99.90;;;;;;5119876;27;20049;-76
2023/07/08 05:17:20;;;;;;;8.38;4.50;;;17.20;99.90;;;;;;5119813;27;20099;-72
2023/07/08 05:19:46;;;;;;;7.93;4.55;;;17.20;99.90;;;;;;5103072;27;20126;-73
2023/07/08 05:22:12;;;;;;;7.00;4.30;;;17.20;99.90;;;;;;5138055;27;20039;-75
2023/07/08 05:24:38;;;;;;;10.60;4.82;;;17.30;99.90;;;;;;5120359;27;20396;-74
2023/07/08 05:27:04;;;;;;;7.23;4.10;;;17.40;99.90;;;;;;5154537;27;20058;-72
2023/07/08 05:29:30;;;;;;;8.07;4.00;;;17.40;99.90;;;;;;5138891;27;20039;-71
2023/07/08 05:31:56;;;;;;;9.30;4.40;;;17.40;99.90;;;;;;5138079;27;20066;-73
2023/07/08 05:34:22;;;;;;;7.03;4.47;;;17.50;99.90;;;;;;5137702;27;20055;-73
2023/07/08 05:36:47;;;;;;;7.93;4.83;;;17.50;99.90;;;;;;5137190;27;20126;-71
2023/07/08 05:39:13;;;;;;;7.53;4.55;;;17.60;99.90;;;;;;5137163;27;20466;-73
2023/07/08 05:41:39;;;;;;;9.47;4.23;;;17.60;99.90;;;;;;5137049;27;20039;-72
2023/07/08 05:44:04;;;;;;;8.48;4.30;;;17.60;99.90;;;;;;5137037;27;20088;-73
2023/07/08 05:46:30;;;;;;;7.27;4.33;;;17.70;99.90;;;;;;5119571;27;20119;-74
2023/07/08 05:48:56;;;;;;;7.30;4.20;;;17.70;99.90;;;;;;5136401;27;20039;-73
2023/07/08 05:51:22;;;;;;;10.17;4.17;;;17.80;99.90;;;;;;5118522;27;20077;-74
2023/07/08 05:53:47;;;;;;;6.38;4.07;;;17.90;99.90;;;;;;5118748;27;20471;-73
2023/07/08 05:56:13;;;;;;;9.50;4.60;;;18.00;99.90;;;;;;5119295;27;20055;-74
2023/07/08 05:58:39;;;;;;;7.07;4.00;;;18.00;99.90;;;;;;5136914;27;20505;-72
2023/07/08 06:01:05;;;;;;;9.32;4.03;;;18.10;99.90;;;;;;5101669;27;20372;-74
2023/07/08 06:03:30;;;;;;;7.45;4.40;;;18.20;99.90;;;;;;5119481;27;20043;-74
2023/07/08 06:05:56;;;;;;;9.10;4.47;;;18.20;99.90;;;;;;5135660;27;20043;-73
2023/07/08 06:08:22;;;;;;;7.40;4.23;;;18.30;99.90;;;;;;5118462;27;20093;-74
2023/07/08 06:10:49;;;;;;;7.70;4.57;;;18.30;99.90;;;;;;5136834;27;20043;-74
2023/07/08 06:13:15;;;;;;;;;;;18.40;99.90;;;;;;5118896;27;20281;-74
2023/07/08 06:15:42;;;;;;;8.40;3.67;;;18.50;99.90;;;;;;5102315;27;19919;-72
2023/07/08 06:18:07;;;;;;;7.95;4.05;;;18.50;99.90;;;;;;5152567;27;20055;-75
2023/07/08 06:20:33;;;;;;;7.35;4.22;;;18.60;99.90;;;;;;5101336;27;20152;-73
2023/07/08 06:22:59;;;;;;;7.70;4.50;;;18.60;99.90;;;;;;5118224;27;20084;-73
2023/07/08 06:25:25;;;;;;;8.60;4.10;;;18.70;99.90;;;;;;5117999;27;20047;-74
2023/07/08 06:27:51;;;;;;;6.47;4.10;;;18.70;99.90;;;;;;5136251;27;20287;-75
2023/07/08 06:30:16;;;;;;;9.53;4.00;;;18.80;99.90;;;;;;5117984;27;20057;-73
2023/07/08 06:32:42;;;;;;;6.60;4.37;;;18.90;99.90;;;;;;5118006;27;20047;-75
2023/07/08 06:35:08;;;;;;;8.00;4.07;;;18.90;99.90;;;;;;5117351;27;20059;-72
2023/07/08 06:37:34;;;;;;;7.57;4.20;;;19.10;99.90;;;;;;5118135;27;20051;-72
2023/07/08 06:40:00;;;;;;;6.40;4.10;;;19.20;99.90;;;;;;5136119;27;20280;-74
2023/07/08 06:42:26;;;;;;;7.60;4.00;;;19.20;99.90;;;;;;5136658;27;20043;-75
2023/07/08 06:44:51;;;;;;;8.32;4.10;;;19.40;99.90;;;;;;5100456;27;20510;-75
2023/07/08 06:47:22;;;;;;;8.47;4.10;;;19.50;99.90;;;;;;5134829;27;20082;-73
2023/07/08 06:49:48;;;;;;;6.40;4.00;;;19.60;99.90;;;;;;5118329;27;20432;-74
2023/07/08 06:52:14;;;;;;;6.65;3.55;;;19.80;99.90;;;;;;5135950;27;20101;-75
2023/07/08 06:54:40;;;;;;;8.65;3.08;;;19.90;99.90;;;;;;5117451;27;20043;-74
2023/07/08 06:57:06;;;;;;;10.50;3.60;;;20.00;99.90;;;;;;5100457;27;20126;-72
2023/07/08 06:59:33;;;;;;;13.18;3.70;;;20.10;99.90;;;;;;5135631;27;20043;-72
2023/07/08 07:01:59;;;;;;;7.50;3.63;;;20.20;99.90;;;;;;5151953;27;20390;-73
2023/07/08 07:04:25;;;;;;;6.33;3.77;;;20.30;99.90;;;;;;5117541;27;20039;-72
2023/07/08 07:06:50;;;;;;;6.57;3.37;;;20.40;99.90;;;;;;5135533;27;20353;-74
2023/07/08 07:09:16;;;;;;;7.37;3.30;;;20.50;99.90;;;;;;5135177;27;20100;-72
2023/07/08 07:11:42;;;;;;;5.53;3.23;;;20.50;99.90;;;;;;5134457;27;20047;-72
2023/07/08 07:14:08;;;;;;;6.63;3.83;;;20.60;99.90;;;;;;5117281;27;20108;-75
2023/07/08 07:16:34;;;;;;;8.18;3.58;;;20.70;99.90;;;;;;5135317;27;20051;-73
2023/07/08 07:19:00;;;;;;;7.13;3.23;;;20.80;99.90;;;;;;5135787;27;20049;-72
2023/07/08 07:21:25;;;;;;;6.37;3.40;;;20.90;99.90;;;;;;5116799;27;20078;-73
2023/07/08 07:23:51;;;;;;;6.53;3.40;;;21.00;99.90;;;;;;5135089;27;20043;-71
2023/07/08 07:26:17;;;;;;;10.23;4.07;;;21.10;99.90;;;;;;5099850;27;20043;-72
2023/07/08 07:28:42;;;;;;;6.37;3.47;;;21.20;99.90;;;;;;5117086;27;20118;-74
2023/07/08 07:31:10;;;;;;;8.80;3.77;;;21.30;99.90;;;;;;5099611;27;20110;-73
2023/07/08 07:33:36;;;;;;;6.47;3.35;;;21.30;99.90;;;;;;5116251;27;20086;-74
2023/07/08 07:36:02;;;;;;;5.63;3.27;;;21.50;99.90;;;;;;5135887;27;20089;-73
2023/07/08 07:38:28;;;;;;;5.70;3.60;;;21.50;99.90;;;;;;5152201;27;20471;-74
2023/07/08 07:40:55;;;;;;;6.95;3.47;;;21.70;99.90;;;;;;5151323;27;20047;-74
2023/07/08 07:43:21;;;;;;;;;;;21.80;99.90;;;;;;5117009;27;20096;-74
2023/07/08 07:45:51;;;;;;;7.00;3.50;;;21.90;99.90;;;;;;5134989;27;19923;-73
2023/07/08 07:48:18;;;;;;;5.65;3.20;;;22.00;99.90;;;;;;5134766;27;20058;-71
2023/07/08 07:50:48;;;;;;;7.05;3.13;;;22.10;99.90;;;;;;5116488;27;20475;-72
2023/07/08 07:53:14;;;;;;;6.75;3.38;;;22.20;99.90;;;;;;5134921;27;20099;-73
2023/07/08 07:55:40;;;;;;;6.38;3.80;;;22.30;99.90;;;;;;5135537;27;20387;-74
2023/07/08 07:58:07;;;;;;;5.87;3.30;;;22.40;99.90;;;;;;5134794;27;20069;-73
2023/07/08 08:00:33;;;;;;;6.60;3.30;;;22.50;99.90;;;;;;5134709;27;20125;-73
2023/07/08 08:02:59;;;;;;;6.67;3.50;;;22.50;99.90;;;;;;5135483;27;20126;-74
2023/07/08 08:05:25;;;;;;;6.13;3.37;;;22.60;99.90;;;;;;5116385;27;20039;-74
2023/07/08 08:07:50;;;;;;;5.97;3.57;;;22.70;99.90;;;;;;5133974;27;20039;-74
2023/07/08 08:10:16;;;;;;;8.77;3.87;;;22.80;99.90;;;;;;5134539;27;20035;-72
2023/07/08 08:12:42;;;;;;;6.85;3.58;;;22.90;99.90;;;;;;5100213;27;20142;-70
2023/07/08 08:15:08;;;;;;;8.37;3.67;;;23.00;99.90;;;;;;5116506;28;20583;-74
2023/07/08 08:17:35;;;;;;;9.38;3.50;;;23.10;99.90;;;;;;5116287;27;20444;-73
2023/07/08 08:20:00;;;;;;;6.40;3.28;;;23.20;99.90;;;;;;5134597;27;20058;-75
2023/07/08 08:22:26;;;;;;;7.00;3.13;;;23.30;99.90;;;;;;5116111;27;20043;-74
2023/07/08 08:24:52;;;;;;;6.93;3.30;;;23.40;99.90;;;;;;5115971;28;20047;-75
2023/07/08 08:27:18;;;;;;;9.60;3.70;;;23.50;99.90;;;;;;5099403;28;20130;-74
2023/07/08 08:29:43;;;;;;;9.87;4.00;;;23.50;99.90;;;;;;5134354;28;20418;-73
2023/07/08 08:32:09;;;;;;;6.77;3.60;;;23.60;99.90;;;;;;5134271;28;20046;-73
2023/07/08 08:34:35;;;;;;;6.37;2.63;;;23.70;99.90;;;;;;5133909;28;20371;-76
2023/07/08 08:37:00;;;;;;;6.23;3.53;;;23.80;99.90;;;;;;5132949;28;20072;-75
2023/07/08 08:39:29;;;;;;;8.93;3.37;;;23.80;99.90;;;;;;5133719;28;20047;-73
2023/07/08 08:41:56;;;;;;;9.32;3.53;;;23.90;99.90;;;;;;5099798;28;20047;-75
2023/07/08 08:44:35;;;;;;;7.50;3.72;;;23.90;99.90;;;;;;5115910;28;20390;-75
2023/07/08 08:47:21;;;;;;;7.25;3.42;;;24.00;99.90;;;;;;5133392;27;20112;-74
2023/07/08 08:49:55;;;;;;;6.97;3.40;;;24.10;99.90;;;;;;5134137;28;20050;-75
2023/07/08 08:52:21;;;;;;;7.53;3.33;;;24.20;99.90;;;;;;5099438;28;20101;-72
2023/07/08 08:54:50;;;;;;;7.13;3.33;;;24.30;99.90;;;;;;5115979;28;20503;-71
2023/07/08 08:57:40;;;;;;;6.78;3.55;;;24.30;99.90;;;;;;5099389;28;20100;-71
2023/07/08 09:00:10;;;;;;;6.57;3.53;;;24.30;99.90;;;;;;5116315;28;20047;-73
2023/07/08 09:03:01;;;;;;;7.07;3.30;;;24.40;99.90;;;;;;5115609;28;20128;-75
2023/07/08 09:05:27;;;;;;;9.18;3.97;;;24.50;99.90;;;;;;5116256;28;20043;-74
2023/07/08 09:08:10;;;;;;;7.78;3.40;;;24.60;99.90;;;;;;5133885;28;20047;-78
2023/07/08 09:11:01;;;;;;;10.25;3.78;;;24.70;99.90;;;;;;5098389;28;20043;-72
2023/07/08 09:13:35;;;;;;;10.27;3.80;;;24.80;99.90;;;;;;5099788;28;20141;-75
2023/07/08 09:16:09;;;;;;;8.10;3.60;;;24.90;99.90;;;;;;5116162;28;20421;-73
2023/07/08 09:19:11;;;;;;;5.82;3.47;;;24.90;99.90;;;;;;5134156;28;20080;-72
2023/07/08 09:21:53;;;;;;;6.78;3.33;;;25.00;99.90;;;;;;5088484;28;20146;-73
2023/07/08 09:24:44;;;;;;;8.95;3.63;;;25.00;99.90;;;;;;5118475;27;20387;-77
2023/07/08 09:27:11;;;;;;;7.45;3.45;;;25.00;99.90;;;;;;5152805;27;20411;-75
2023/07/08 09:29:37;;;;;;;7.90;3.88;;;25.00;99.90;;;;;;5137496;27;20051;-76
2023/07/08 09:32:24;;;;;;;6.40;3.30;;;25.00;99.90;;;;;;5137466;27;20080;-74
2023/07/08 09:35:05;;;;;;;6.13;3.50;;;25.10;99.90;;;;;;5138441;27;20632;-72
2023/07/08 09:37:36;;;;;;;8.85;3.83;;;25.30;99.90;;;;;;5137807;27;20103;-74
2023/07/08 09:40:21;;;;;;;9.32;3.40;;;25.40;99.90;;;;;;5137423;27;20058;-73
2023/07/08 09:42:54;;;;;;;10.15;3.40;;;25.50;99.90;;;;;;5119653;27;20384;-74
2023/07/08 09:45:23;;;;;;;7.55;3.50;;;25.60;99.80;;;;;;5137323;27;20050;-73
2023/07/08 09:47:53;;;;;;;6.25;3.28;;;25.70;99.90;;;;;;5119571;27;20134;-75
2023/07/08 09:50:25;;;;;;;7.72;3.70;;;25.90;99.90;;;;;;5102112;27;20043;-75
2023/07/08 09:52:54;;;;;;;8.10;3.70;;;25.90;99.50;;;;;;5119008;27;20108;-75
2023/07/08 09:55:20;;;;;;;8.75;3.60;;;26.00;98.60;;;;;;5118889;27;20069;-75
2023/07/08 09:57:48;;;;;;;9.85;3.92;;;26.10;99.70;;;;;;5136913;27;20051;-74
2023/07/08 10:00:17;;;;;;;7.70;3.45;;;26.20;99.40;;;;;;5101467;27;20039;-73
2023/07/08 10:02:55;;;;;;;7.65;3.60;;;26.30;99.20;;;;;;5136991;27;20039;-74
2023/07/08 10:05:40;;;;;;;7.90;3.30;;;26.30;99.10;;;;;;5136850;27;20082;-75
2023/07/08 10:08:18;;;;;;;7.63;3.28;;;26.40;98.90;;;;;;5119059;27;20421;-76
2023/07/08 10:10:47;;;;;;;6.28;3.33;;;26.50;98.70;;;;;;5137125;27;20051;-74
2023/07/08 10:13:43;;;;;;;6.97;3.40;;;26.60;98.20;;;;;;5136553;27;20059;-74
2023/07/08 10:16:25;;;;;;;6.97;3.47;;;26.70;98.30;;;;;;5119031;27;20122;-74
2023/07/08 10:18:51;;;;;;;7.28;3.20;;;26.80;98.40;;;;;;5137254;27;20055;-76
2023/07/08 10:21:38;;;;;;;6.85;3.58;;;26.90;98.30;;;;;;5118689;27;20375;-74
2023/07/08 10:24:29;;;;;;;5.88;3.58;;;27.00;98.30;;;;;;5118159;27;20051;-73
2023/07/08 10:27:04;;;;;;;7.53;3.60;;;27.20;98.50;;;;;;5136162;27;20058;-74
2023/07/08 10:29:45;;;;;;;8.13;3.42;;;27.30;97.60;;;;;;5101431;27;20043;-72
2023/07/08 10:32:27;;;;;;;6.65;3.42;;;27.30;97.30;;;;;;5118974;27;20092;-75
2023/07/08 10:35:01;;;;;;;7.57;3.50;;;27.50;97.10;;;;;;5136436;27;20066;-77
2023/07/08 10:37:48;;;;;;;5.90;3.40;;;27.50;96.80;;;;;;5117844;27;20043;-74
2023/07/08 10:40:45;;;;;;;4.88;3.38;;;27.60;97.00;;;;;;5100676;27;20055;-76
2023/07/08 10:43:46;;;;;;;5.90;3.50;;;27.70;96.40;;;;;;5136618;27;20047;-73
2023/07/08 10:46:28;;;;;;;10.02;3.30;;;27.70;96.20;;;;;;5136031;27;20047;-73
2023/07/08 10:49:27;;;;;;;6.68;3.25;;;27.80;95.70;;;;;;5118379;27;20039;-74
2023/07/08 10:52:23;;;;;;;6.93;3.38;;;27.80;96.00;;;;;;5135777;27;20135;-75
2023/07/08 10:55:14;;;;;;;6.18;3.58;;;27.90;95.40;;;;;;5135658;27;20066;-76
2023/07/08 10:58:04;;;;;;;7.45;3.45;;;28.00;94.70;;;;;;5136173;27;20378;-78
2023/07/08 11:00:51;;;;;;;7.90;3.40;;;28.10;94.60;;;;;;5117330;27;20050;-74
2023/07/08 11:04:05;;;;;;;9.50;3.28;;;28.10;94.50;;;;;;5118019;27;20047;-77
2023/07/08 11:06:51;;;;;;;8.73;3.83;;;28.20;94.90;;;;;;5133926;27;20051;-76
2023/07/08 11:09:34;;;;;;;7.15;3.72;;;28.30;95.00;;;;;;5136438;27;20047;-75
2023/07/08 11:12:08;;;;;;;8.60;3.50;;;28.30;94.70;;;;;;5135366;27;20166;-74
2023/07/08 11:14:36;;;;;;;8.75;3.30;;;28.40;93.80;;;;;;5135441;27;20099;-75
2023/07/08 11:17:27;;;;;;;7.40;3.35;;;28.50;94.20;;;;;;5117247;27;20055;-76
2023/07/08 11:20:24;;;;;;;8.32;3.40;;;28.50;94.50;;;;;;5136104;27;20091;-74
2023/07/08 11:23:02;;;;;;;7.30;3.53;;;28.60;93.30;;;;;;5123156;27;20065;-75
2023/07/08 11:25:31;;;;;;;9.85;3.95;;;28.60;92.80;;;;;;5099884;27;20061;-76
2023/07/08 11:28:02;;;;;;;8.20;3.78;;;28.70;93.00;;;;;;5135130;27;20055;-74
2023/07/08 11:30:30;;;;;;;9.18;3.95;;;28.80;93.10;;;;;;5135707;27;20506;-76
2023/07/08 11:33:10;;;;;;;8.60;3.55;;;28.90;93.10;;;;;;5117251;27;20188;-72
2023/07/08 11:35:50;;;;;;;7.38;3.50;;;29.00;92.90;;;;;;5135909;27;20134;-75
2023/07/08 11:38:19;;;;;;;6.78;3.88;;;29.00;91.70;;;;;;5152048;27;20078;-75
2023/07/08 11:41:12;;;;;;;7.22;4.00;;;29.10;92.50;;;;;;5117087;27;20096;-76
2023/07/08 11:43:53;;;;;;;7.35;3.60;;;29.20;90.80;;;;;;5117747;27;20043;-76
2023/07/08 11:46:21;;;;;;;7.65;4.05;;;29.30;90.50;;;;;;5135432;27;20427;-78
2023/07/08 11:48:52;;;;;;;9.40;3.95;;;29.40;91.20;;;;;;5135248;27;20046;-74
2023/07/08 11:51:27;;;;;;;13.77;4.15;;;29.40;91.00;;;;;;5134976;27;20134;-77
2023/07/08 11:54:03;;;;;;;7.93;3.95;;;29.50;90.50;;;;;;5116931;27;20055;-75
2023/07/08 11:56:55;;;;;;;7.93;4.22;;;29.50;90.60;;;;;;5116691;27;20490;-77
2023/07/08 11:59:22;;;;;;;8.57;4.30;;;29.60;90.80;;;;;;5135402;27;20047;-76
2023/07/08 12:01:53;;;;;;;7.40;3.90;;;29.60;88.80;;;;;;5116963;27;20054;-75
2023/07/08 12:04:30;;;;;;;9.32;4.30;;;29.70;90.20;;;;;;5116216;27;20047;-73
2023/07/08 12:07:30;;;;;;;8.30;4.10;;;29.70;90.20;;;;;;5135206;27;20039;-75
2023/07/08 12:10:16;;;;;;;11.02;4.07;;;29.80;90.10;;;;;;5116665;27;20051;-76
2023/07/08 12:12:43;;;;;;;7.97;4.05;;;29.80;89.60;;;;;;5134580;27;20055;-74
2023/07/08 12:15:17;;;;;;;8.82;4.28;;;29.90;90.30;;;;;;5134724;27;20371;-74
2023/07/08 12:17:42;;;;;;;10.15;4.13;;;30.00;88.40;;;;;;5099757;27;20433;-75
2023/07/08 12:20:25;;;;;;;9.30;4.50;;;30.10;90.10;;;;;;5134376;27;20035;-75
2023/07/08 12:22:51;;;;;;;12.02;4.20;;;30.20;89.90;;;;;;5099738;27;20089;-76
2023/07/08 12:25:21;;;;;;;9.60;4.57;;;30.20;87.90;;;;;;5099448;27;20471;-75
2023/07/08 12:27:47;;;;;;;9.55;4.80;;;30.20;88.60;;;;;;5116389;28;20055;-73
2023/07/08 12:30:15;;;;;;;7.07;4.35;;;30.20;88.60;;;;;;5150221;27;20070;-73
2023/07/08 12:32:42;;;;;;;9.20;4.60;;;30.30;88.20;;;;;;5134656;28;20043;-73
2023/07/08 12:35:29;;;;;;;8.65;5.13;;;30.40;87.10;;;;;;5115635;28;20059;-78
2023/07/08 12:38:02;;;;;;;8.48;4.68;;;30.40;86.10;;;;;;5134187;28;20051;-75
2023/07/08 12:40:29;;;;;;;9.20;4.65;;;30.60;86.20;;;;;;5115825;28;20043;-77
2023/07/08 12:42:57;;;;;;;10.25;4.40;;;30.50;86.30;;;;;;5134096;28;20043;-77
2023/07/08 12:45:25;;;;;;;8.15;4.15;;;30.60;85.60;;;;;;5134344;28;20031;-76
2023/07/08 12:47:51;;;;;;;13.32;4.70;;;30.60;85.40;;;;;;5134817;28;20051;-76
2023/07/08 12:50:17;;;;;;;10.90;4.90;;;30.70;85.20;;;;;;5099153;28;20106;-73
2023/07/08 12:52:45;;;;;;;8.80;4.70;;;30.70;84.40;;;;;;5133005;28;20409;-75
2023/07/08 12:55:13;;;;;;;9.32;4.53;;;30.70;83.80;;;;;;5134650;28;20066;-78
2023/07/08 12:57:42;;;;;;;9.43;4.90;;;30.80;82.20;;;;;;5116036;28;20050;-77
2023/07/08 13:00:16;;;;;;;12.13;4.63;;;31.00;78.80;;;;;;5138145;27;20051;-75
2023/07/08 13:02:46;;;;;;;9.35;4.63;;;31.00;79.50;;;;;;5138022;27;20047;-77